Date,TemperatureHighF,TemperatureAvgF,TemperatureLowF,DewpointHighF,DewpointAvgF,DewpointLowF,HumidityHigh,HumidityAvg,HumidityLow,PressureMaxIn,PressureMinIn,WindSpeedMaxMPH,WindSpeedAvgMPH,GustSpeedMaxMPH,PrecipitationSumIn
2013-1-1,19.6,6.2,-3.6,6.0,-1.1,-6.6,88,73,46,30.27,30.13,8,2,8,0.00
2013-1-2,28.0,17.6,11.7,14.2,10.2,6.2,87,73,49,30.14,30.06,11,3,11,0.00
2013-1-3,23.7,18.5,10.8,17.9,13.7,5.9,84,81,74,30.21,30.06,11,4,11,0.00
2013-1-4,31.3,19.0,9.0,19.1,12.3,4.6,88,76,57,30.20,30.04,11,6,11,0.00
2013-1-5,38.7,21.6,6.4,25.3,16.1,4.0,92,80,48,30.22,29.90,8,2,8,0.00
2013-1-6,37.4,25.4,15.8,24.2,19.4,12.5,90,78,54,30.28,29.91,8,4,8,0.00
2013-1-7,41.0,25.9,10.2,25.4,18.1,7.6,91,73,49,30.27,29.97,17,5,17,0.00
2013-1-8,41.0,29.8,14.9,30.8,24.5,13.0,97,81,58,30.13,29.91,14,3,14,0.00
2013-1-9,40.8,34.5,25.0,31.4,25.5,18.7,85,70,52,30.47,29.89,15,6,15,0.00
2013-1-10,41.5,29.3,16.7,23.8,20.6,14.3,92,71,46,30.52,30.31,8,2,8,0.00
2013-1-11,40.6,37.6,36.3,40.1,31.0,23.8,99,79,60,30.31,29.83,7,2,7,0.45
2013-1-12,45.5,31.9,18.0,42.7,26.5,11.1,99,80,69,30.27,29.79,22,7,22,0.01
2013-1-13,18.1,13.8,7.2,11.6,7.0,-0.5,82,74,66,30.42,30.20,9,4,9,0.00
2013-1-14,19.6,10.2,3.2,8.4,3.7,-0.5,86,75,56,30.65,30.42,11,4,11,0.00
2013-1-15,32.7,16.4,1.0,15.2,8.3,-1.8,90,72,46,30.64,29.74,12,2,12,0.00
2013-1-16,31.5,25.2,17.2,26.8,18.4,10.4,87,75,60,29.78,29.42,15,6,17,0.00
2013-1-17,21.2,12.7,2.8,10.6,3.0,-3.2,85,65,43,30.09,29.78,8,3,8,0.00
2013-1-18,42.3,22.7,1.4,31.8,16.5,-2.2,89,78,57,30.10,29.47,15,3,15,0.06
2013-1-19,46.2,33.0,9.3,34.4,26.4,-2.2,92,77,57,29.61,29.30,21,6,21,0.00
2013-1-20,13.3,5.8,0.1,-1.3,-5.6,-7.8,69,59,42,29.99,29.61,14,5,14,0.00
2013-1-21,3.4,-4.1,-10.1,-4.1,-13.4,-19.2,79,63,49,29.97,29.82,12,5,12,0.00
2013-1-22,3.9,-5.8,-12.3,-11.1,-15.3,-19.0,76,63,41,30.04,29.95,8,3,8,0.00
2013-1-23,14.5,6.2,-5.1,7.6,-2.1,-11.9,85,68,58,30.13,29.77,11,5,11,0.00
2013-1-24,14.0,4.1,-5.3,5.4,-5.5,-10.1,85,64,41,30.36,30.07,7,3,7,0.00
2013-1-25,20.1,14.4,8.6,15.7,10.5,5.1,91,84,78,30.07,29.63,9,3,9,0.00
2013-1-26,33.6,15.3,2.8,12.0,6.7,-1.2,85,70,38,30.09,29.87,9,3,9,0.00
2013-1-27,31.6,25.3,18.9,31.4,20.2,11.6,99,81,69,30.02,29.61,12,3,12,0.00
2013-1-28,35.6,32.5,30.6,32.3,31.1,29.5,99,94,86,29.67,29.52,8,1,9,0.13
2013-1-29,41.5,34.3,30.6,41.3,33.8,29.6,99,98,96,29.57,29.25,9,2,9,0.06
2013-1-30,33.1,25.5,12.9,32.6,24.4,10.8,99,95,91,29.31,29.09,4,0,4,0.00
2013-1-31,16.0,8.5,-0.9,11.2,3.0,-5.2,92,78,61,29.78,29.27,0,0,0,0.00
2013-2-1,4.3,-1.9,-9.9,-4.0,-9.9,-15.2,82,68,48,29.97,29.78,8,1,8,0.00
2013-2-2,25.0,7.1,-0.2,2.3,-2.5,-6.3,84,66,33,29.84,29.71,5,2,5,0.00
2013-2-3,20.1,8.5,-0.2,5.2,0.9,-5.6,86,71,49,29.73,29.62,9,3,9,0.00
2013-2-4,28.6,11.4,2.3,4.7,-0.7,-4.4,81,60,28,29.73,29.63,7,1,57,0.00
2013-2-5,25.3,18.2,1.6,20.1,12.1,-6.4,85,77,64,29.79,29.45,8,3,8,0.00
2013-2-6,31.1,14.3,-3.6,20.9,9.7,-7.1,95,83,50,29.93,29.78,8,2,8,0.00
2013-2-7,26.1,23.9,22.1,25.2,23.1,20.9,98,97,95,29.82,29.73,9,2,9,0.00
2013-2-8,32.4,21.5,7.0,22.5,17.6,3.8,97,86,47,30.38,29.82,4,3,4,0.00
2013-2-9,26.1,14.4,0.0,22.4,11.4,-3.1,92,88,79,30.38,30.17,11,3,11,0.00
2013-2-10,38.1,29.5,21.4,36.6,28.3,20.6,99,95,81,30.18,29.43,9,3,11,0.51
2013-2-11,38.1,31.2,25.3,37.1,28.4,19.2,99,89,76,30.01,29.40,14,6,14,0.06
2013-2-12,29.5,23.6,19.6,20.2,17.1,13.2,84,76,60,30.11,29.90,10,4,10,0.00
2013-2-13,38.3,31.0,20.3,27.1,24.0,17.4,92,76,62,29.90,29.69,6,2,6,0.00
2013-2-14,35.2,30.1,19.2,30.9,26.6,10.8,99,87,70,30.05,29.62,9,1,9,0.04
2013-2-15,27.1,15.6,7.5,10.8,7.0,2.3,83,69,42,30.20,29.93,8,3,8,0.00
2013-2-16,27.3,9.5,0.3,4.7,-1.0,-6.8,82,64,30,29.97,29.87,7,3,7,0.00
2013-2-17,25.2,8.6,-11.0,6.9,-2.4,-15.3,83,63,35,29.97,29.73,11,2,11,0.00
2013-2-18,44.4,30.6,17.1,31.5,22.2,6.7,92,71,53,29.73,29.25,11,3,11,0.02
2013-2-19,31.5,13.5,4.8,29.5,7.5,-3.7,95,77,57,29.93,29.26,13,6,13,0.00
2013-2-20,31.8,14.7,2.3,9.2,3.2,-3.5,82,62,37,30.17,29.93,8,4,9,0.00
2013-2-21,24.3,13.9,-0.4,19.5,8.7,-4.2,92,80,64,30.24,29.94,11,3,11,0.00
2013-2-22,30.7,24.8,20.7,28.8,23.2,18.4,97,94,86,29.94,29.60,9,3,10,0.00
2013-2-23,34.5,26.1,23.0,24.4,22.2,19.4,97,85,63,29.69,29.57,8,3,10,0.00
2013-2-24,40.3,29.0,20.8,27.0,22.2,16.8,88,76,50,29.93,29.68,5,2,5,0.09
2013-2-25,36.3,24.5,11.5,24.7,18.4,9.2,93,78,58,29.95,29.86,6,1,6,0.01
2013-2-26,38.7,28.1,19.8,27.1,23.3,18.2,98,83,60,29.90,29.58,13,5,14,0.00
2013-2-27,35.6,31.9,29.1,29.9,27.1,23.4,93,82,74,29.64,29.51,11,5,11,0.01
2013-2-28,32.9,30.2,23.7,28.4,22.4,14.4,91,73,59,29.97,29.63,9,4,10,0.00
2013-3-1,38.3,26.3,19.2,17.6,14.1,5.4,81,61,39,30.07,29.96,7,3,7,0.00
2013-3-2,37.6,21.1,9.3,12.2,6.5,0.1,81,56,28,30.07,29.95,5,3,5,0.00
2013-3-3,39.6,19.4,0.9,9.3,3.4,-3.2,84,54,22,29.96,29.86,8,2,8,0.00
2013-3-4,30.9,19.3,5.7,18.0,10.5,-0.4,87,69,51,30.15,29.88,7,3,7,0.00
2013-3-5,30.2,25.8,22.8,25.6,19.6,15.4,94,77,61,30.17,30.01,9,4,9,0.00
2013-3-6,37.6,28.2,19.6,26.2,21.4,13.8,90,76,60,30.33,30.16,6,3,7,0.07
2013-3-7,43.2,25.3,10.8,18.3,14.2,8.0,89,65,32,30.45,30.32,8,2,8,0.00
2013-3-8,43.3,26.7,10.8,26.6,19.1,8.7,91,74,48,30.48,30.32,12,2,12,0.00
2013-3-9,37.2,31.7,26.8,33.9,28.4,22.9,99,88,77,30.32,29.86,14,3,14,0.46
2013-3-10,38.3,34.9,30.9,37.2,34.1,30.2,99,97,89,29.92,29.77,13,2,13,0.31
2013-3-11,36.9,31.7,25.3,33.9,29.4,-37.2,99,91,80,29.77,29.61,8,2,8,0.14
2013-3-12,30.2,26.0,20.5,21.8,18.7,12.2,88,74,57,30.03,29.76,10,5,10,0.01
2013-3-13,37.8,27.2,17.8,15.1,9.1,1.8,87,50,23,30.31,30.03,8,4,8,0.02
2013-3-14,40.1,30.1,18.3,25.1,16.4,6.9,84,58,32,30.31,30.05,11,3,11,0.02
2013-3-15,37.6,30.6,23.7,32.7,27.3,22.0,95,88,80,30.06,29.91,10,3,10,0.06
2013-3-16,39.4,23.3,16.2,22.1,14.6,10.5,95,71,40,30.14,29.93,9,4,9,0.11
2013-3-17,29.1,18.8,9.0,12.9,6.5,-1.2,80,59,34,30.34,30.11,11,4,11,0.00
2013-3-18,30.6,22.4,14.2,27.6,19.3,10.5,93,88,80,30.11,29.59,14,2,14,0.00
2013-3-19,28.4,22.0,15.3,11.0,7.3,4.0,70,53,42,30.00,29.79,17,8,17,0.01
2013-3-20,22.5,13.6,5.2,4.9,0.9,-4.2,71,57,42,30.08,30.00,11,6,11,0.00
2013-3-21,34.5,19.0,8.1,13.0,7.4,0.7,79,62,37,30.08,30.02,8,4,8,0.00
2013-3-22,44.1,25.1,9.1,19.5,11.7,4.8,83,59,28,30.10,30.03,6,2,6,0.00
2013-3-23,39.7,27.1,17.4,23.5,18.6,11.2,83,70,49,30.19,30.09,8,1,8,0.00
2013-3-24,35.2,30.0,27.1,23.2,21.4,17.0,81,70,57,30.15,29.91,9,3,9,0.00
2013-3-25,38.3,30.2,21.4,24.6,20.4,16.4,86,68,52,30.16,29.93,9,4,9,0.00
2013-3-26,45.1,34.6,27.5,27.4,22.3,20.0,75,61,40,30.28,30.16,6,3,6,0.00
2013-3-27,49.8,37.7,30.9,23.5,20.0,16.6,66,50,29,30.34,30.28,7,3,7,0.00
2013-3-28,52.0,36.7,23.2,20.3,17.6,13.4,71,49,22,30.38,30.30,8,2,8,0.00
2013-3-29,53.8,39.2,24.1,25.1,18.2,13.6,72,46,21,30.37,30.25,9,2,10,0.00
2013-3-30,49.1,39.1,32.5,40.3,29.5,20.6,99,69,57,30.25,29.85,15,3,15,0.15
2013-3-31,43.2,36.3,28.8,38.4,30.2,13.9,99,80,41,29.95,29.73,12,5,13,0.00
2013-4-1,34.2,27.3,20.8,17.3,12.3,8.7,69,54,35,30.19,29.95,11,5,12,0.00
2013-4-2,40.1,28.8,19.6,15.7,13.2,8.9,70,53,31,30.34,30.19,11,4,11,0.00
2013-4-3,47.8,31.6,16.2,18.2,10.3,-8.6,79,46,10,30.50,30.27,11,2,12,0.00
2013-4-4,51.4,41.3,32.7,32.8,24.5,17.2,62,51,41,30.28,30.00,13,5,13,0.00
2013-4-5,46.2,36.8,26.8,26.6,20.1,16.0,74,52,32,30.30,30.11,8,3,8,0.00
2013-4-6,48.7,36.8,29.3,45.8,32.8,27.1,99,86,60,30.20,29.55,14,4,15,0.15
2013-4-7,48.0,40.0,34.5,44.8,32.7,29.0,98,76,55,30.00,29.55,9,4,9,0.00
2013-4-8,37.8,35.9,34.0,37.0,33.8,30.2,99,92,84,30.08,29.82,10,2,10,0.31
2013-4-9,39.4,35.2,32.4,39.1,32.5,22.4,99,90,62,30.17,30.02,11,3,11,0.56
2013-4-10,37.4,33.1,28.6,33.1,28.2,19.7,99,83,53,30.22,30.03,10,2,11,0.21
2013-4-11,34.2,31.3,28.6,31.4,27.1,20.8,98,85,58,30.06,29.71,17,4,17,0.02
2013-4-12,41.9,32.8,28.4,35.0,30.4,27.7,99,91,72,29.80,29.64,4,1,4,0.12
2013-4-13,39.2,33.2,28.2,30.8,25.7,21.5,96,75,51,30.03,29.77,11,4,11,0.01
2013-4-14,35.2,29.7,23.5,32.3,26.7,21.0,97,89,75,30.07,29.73,11,4,11,0.11
2013-4-15,55.8,42.4,34.3,43.8,33.9,26.4,99,75,37,29.99,29.66,22,5,22,0.28
2013-4-16,50.7,39.6,34.0,30.9,28.8,27.0,80,66,43,30.35,29.97,10,4,10,0.00
2013-4-17,38.5,35.8,31.3,35.4,31.4,27.6,95,84,74,30.42,30.01,11,4,11,0.09
2013-4-18,41.0,37.5,34.9,40.7,37.1,34.6,99,99,96,30.01,29.34,10,4,10,0.26
2013-4-19,41.5,33.3,26.4,40.9,27.0,16.6,99,78,56,29.91,29.28,13,7,13,0.00
2013-4-20,45.1,32.0,22.1,19.9,14.8,7.9,82,53,24,30.41,29.91,9,3,9,0.00
2013-4-21,41.0,33.2,25.0,33.6,27.0,18.7,96,78,62,30.52,30.26,16,4,16,0.05
2013-4-22,49.8,45.0,41.0,46.5,40.2,30.2,92,83,65,30.27,30.06,12,2,12,0.12
2013-4-23,44.2,39.6,33.8,42.0,33.8,24.7,99,80,64,30.07,29.91,11,3,11,0.07
2013-4-24,53.4,40.8,27.7,28.6,24.1,17.0,85,55,29,30.06,29.97,16,4,16,0.00
2013-4-25,52.5,42.3,33.4,35.8,30.0,25.2,95,65,36,30.29,29.95,17,5,17,0.05
2013-4-26,72.1,52.5,33.6,48.2,35.1,25.6,82,55,28,30.31,30.11,17,5,18,0.04
2013-4-27,73.6,61.3,49.6,51.1,47.1,43.6,86,61,38,30.23,30.08,19,5,19,0.00
2013-4-28,75.9,60.0,40.6,48.3,43.0,38.1,95,58,28,30.08,29.83,11,3,11,0.00
2013-4-29,72.7,61.0,52.0,57.3,51.3,46.3,93,72,51,29.88,29.77,16,3,16,0.02
2013-4-30,88.0,72.3,59.2,59.3,55.2,40.9,89,59,29,29.90,29.68,22,6,22,0.00
2013-5-1,80.2,62.0,43.9,51.0,44.9,35.3,85,56,33,30.36,29.91,9,4,9,0.00
2013-5-2,44.4,40.1,-29.7,35.4,33.3,-36.3,95,77,67,30.41,30.32,29,5,29,0.04
2013-5-3,42.6,36.7,32.4,42.4,36.2,31.6,99,98,93,30.35,30.11,8,3,8,0.57
2013-5-4,74.8,56.0,41.4,51.8,45.6,40.8,99,73,34,30.15,30.09,11,2,11,0.01
2013-5-5,77.7,59.9,45.5,49.0,43.8,39.7,82,59,29,30.17,30.09,8,2,9,0.00
2013-5-6,79.7,60.6,43.5,46.0,41.8,36.3,93,56,22,30.17,30.06,8,1,8,0.00
2013-5-7,83.5,64.7,43.5,47.3,35.9,19.6,89,45,11,30.15,30.06,12,2,12,0.00
2013-5-8,84.2,66.6,45.3,50.8,41.7,29.8,86,46,17,30.10,30.01,8,1,8,0.00
2013-5-9,64.0,56.3,42.4,56.0,49.0,41.1,99,78,44,30.07,29.99,11,2,11,0.52
2013-5-10,67.3,48.3,37.2,52.6,41.8,36.5,99,81,45,30.09,29.97,9,4,9,0.11
2013-5-11,53.1,46.0,38.5,47.4,35.3,20.7,98,70,31,30.06,29.83,13,5,13,0.01
2013-5-12,55.8,43.1,34.5,29.0,23.4,16.7,70,49,26,30.17,30.06,13,5,13,0.00
2013-5-13,65.1,46.8,26.8,38.6,24.5,12.3,86,48,14,30.23,29.95,13,3,13,0.00
2013-5-14,82.8,63.7,44.4,56.2,45.1,34.9,77,53,29,29.96,29.57,15,3,15,0.00
2013-5-15,81.1,69.8,57.0,54.6,42.5,31.5,86,41,18,29.91,29.57,9,4,9,0.00
2013-5-16,85.3,68.1,51.6,52.4,45.0,39.7,78,47,22,30.11,29.88,14,3,14,0.00
2013-5-17,56.5,51.5,46.6,51.9,46.3,37.8,98,84,54,30.20,30.09,10,3,11,0.43
2013-5-18,77.4,63.1,50.5,64.6,55.8,48.1,96,78,58,30.16,30.00,14,3,14,0.01
2013-5-19,86.5,74.7,57.7,66.3,63.3,57.1,98,69,48,30.01,29.77,17,5,17,0.00
2013-5-20,86.2,73.2,61.7,64.1,61.1,56.0,99,69,39,29.87,29.68,19,4,19,0.19
2013-5-21,78.3,69.4,61.9,66.2,60.8,56.1,97,75,51,29.77,29.65,16,3,16,0.27
2013-5-22,64.2,58.2,51.3,59.5,56.5,51.0,99,94,76,29.89,29.73,10,2,10,0.60
2013-5-23,65.5,53.3,42.6,51.0,40.2,28.4,99,67,27,30.37,29.89,11,4,11,0.12
2013-5-24,68.5,51.4,33.6,41.5,34.5,30.2,92,57,27,30.51,30.35,10,2,10,0.00
2013-5-25,69.1,55.2,41.5,42.0,38.9,34.3,90,58,29,30.46,30.35,11,3,11,0.00
2013-5-26,68.4,54.6,39.2,42.7,40.0,37.0,99,62,36,30.38,30.24,12,3,14,0.00
2013-5-27,61.9,54.8,50.4,53.7,45.5,37.7,95,72,52,30.26,29.99,17,4,17,0.06
2013-5-28,57.9,53.6,50.2,56.8,53.1,49.9,99,98,95,30.00,29.80,8,2,8,0.12
2013-5-29,88.2,68.2,55.8,67.6,61.2,55.5,99,82,42,29.95,29.85,16,3,16,0.00
2013-5-30,86.2,70.8,62.4,73.2,66.6,62.0,99,88,54,29.95,29.77,21,4,21,0.00
2013-5-31,81.0,70.9,63.0,65.9,62.6,60.4,93,76,52,29.82,29.72,18,5,18,0.46
2013-6-1,81.0,68.3,57.0,65.0,59.2,53.6,99,75,41,29.75,29.66,17,3,17,0.01
2013-6-2,69.3,54.9,45.1,58.0,42.9,37.8,87,66,35,30.08,29.74,11,4,11,0.00
2013-6-3,77.9,59.0,41.2,50.2,44.1,39.1,98,64,27,30.14,30.05,8,2,8,0.00
2013-6-4,59.7,53.6,50.4,53.8,49.2,44.3,99,86,63,30.27,30.14,4,2,4,0.54
2013-6-5,58.3,52.1,49.3,56.2,51.1,49.0,99,96,85,30.23,30.06,9,2,9,0.47
2013-6-6,54.9,51.9,50.2,52.4,50.6,47.4,99,96,86,30.07,30.03,7,2,7,0.31
2013-6-7,74.8,59.9,49.8,55.8,50.2,45.7,96,73,41,30.08,30.00,9,2,9,0.01
2013-6-8,76.1,61.7,53.4,58.6,53.7,45.7,97,78,39,30.09,29.99,8,1,8,0.07
2013-6-9,75.7,62.5,52.7,62.6,56.0,48.4,95,80,59,30.11,29.93,12,2,14,0.01
2013-6-10,84.6,70.3,57.6,65.3,61.6,57.3,99,76,51,29.95,29.86,8,2,8,0.00
2013-6-11,85.3,71.4,60.3,65.2,62.8,59.4,98,77,46,29.97,29.89,8,1,8,0.00
2013-6-12,80.2,67.8,59.0,63.8,61.6,57.3,99,82,52,30.00,29.80,9,2,9,0.13
2013-6-13,75.6,62.0,59.0,59.6,57.4,55.5,97,86,54,30.03,29.85,6,1,6,0.00
2013-6-14,85.5,75.5,65.5,57.1,52.8,46.0,67,47,33,30.19,29.77,11,3,11,0.00
2013-6-15,81.7,67.1,57.9,69.0,61.6,52.5,99,83,63,30.10,29.85,13,2,13,1.61
2013-6-16,86.2,71.1,59.2,67.0,58.1,49.2,99,70,31,29.97,29.90,11,2,11,0.01
2013-6-17,85.3,67.2,54.7,63.6,58.3,53.2,96,75,44,30.08,29.93,8,2,8,0.02
2013-6-18,77.9,62.3,47.8,56.1,48.1,41.6,93,63,34,30.19,30.07,11,2,11,0.00
2013-6-19,82.8,63.5,43.9,56.6,48.3,41.1,97,63,27,30.22,30.11,9,1,9,0.00
2013-6-20,83.1,65.3,57.0,63.2,55.0,51.3,84,70,50,30.20,30.14,10,2,10,0.00
2013-6-21,80.1,71.4,63.9,68.1,65.5,56.1,99,83,60,30.14,29.82,23,4,23,0.87
2013-6-22,84.2,69.3,63.1,70.8,66.0,62.8,99,90,61,30.15,29.98,11,2,11,0.17
2013-6-23,89.1,75.4,64.8,73.9,67.9,63.8,99,80,48,30.08,29.89,22,4,22,0.13
2013-6-24,86.9,75.4,65.5,73.0,68.9,64.5,99,81,61,30.03,29.91,12,2,15,0.00
2013-6-25,87.4,74.9,66.4,71.4,68.0,65.3,98,80,55,29.97,29.87,10,2,10,0.01
2013-6-26,87.1,76.1,69.8,72.5,70.5,66.7,99,84,56,29.87,29.77,11,2,11,0.02
2013-6-27,89.1,75.1,63.1,73.3,67.8,57.9,99,81,45,29.86,29.74,9,2,9,0.25
2013-6-28,79.5,67.7,61.9,68.1,63.8,60.0,99,88,61,29.80,29.69,5,2,7,0.25
2013-6-29,74.7,65.2,60.6,65.7,61.0,53.4,99,87,60,29.95,29.74,9,2,11,0.06
2013-6-30,86.7,69.6,55.0,57.9,48.7,37.8,77,52,18,30.14,29.95,7,2,7,0.00
2013-7-1,88.3,70.7,54.5,58.2,53.4,49.9,91,59,27,30.24,30.14,8,1,8,0.00
2013-7-2,81.3,67.5,54.9,54.9,49.2,39.0,79,55,23,30.24,30.16,8,2,9,0.00
2013-7-3,78.1,65.3,57.2,62.0,54.8,49.5,86,70,49,30.19,30.08,5,1,8,0.00
2013-7-4,87.3,72.7,61.2,63.2,61.0,58.2,97,70,40,30.14,30.05,11,2,17,0.00
2013-7-5,90.0,76.0,60.6,66.7,61.2,56.8,96,64,35,30.11,30.01,17,2,17,0.00
2013-7-6,92.8,77.8,66.7,67.6,64.5,61.6,86,66,39,30.08,29.99,11,2,12,0.00
2013-7-7,91.2,78.0,68.2,74.6,68.9,64.8,91,75,54,30.03,29.94,8,2,8,0.00
2013-7-8,92.8,78.0,69.4,76.8,71.3,68.3,99,82,47,30.06,29.92,5,1,6,0.61
2013-7-9,84.6,74.9,67.6,76.8,71.2,67.4,99,89,69,30.07,29.83,13,2,17,0.15
2013-7-10,81.7,72.0,61.3,70.0,60.8,55.6,91,70,44,30.08,29.87,8,3,8,0.00
2013-7-11,88.2,71.0,55.9,63.9,56.8,53.2,98,66,32,30.19,30.08,8,1,9,0.00
2013-7-12,86.9,72.3,58.8,64.1,58.2,54.1,89,64,36,30.22,30.13,11,2,12,0.00
2013-7-13,89.1,74.0,63.5,65.8,60.9,57.6,85,66,38,30.23,30.12,13,3,13,0.00
2013-7-14,91.0,75.6,58.6,69.2,63.7,56.3,93,69,47,30.30,30.21,10,2,10,0.00
2013-7-15,92.1,79.2,66.7,73.7,69.9,65.0,96,75,51,30.35,30.28,9,1,9,0.00
2013-7-16,97.3,82.9,71.6,78.3,74.3,71.0,99,77,50,30.34,30.26,10,2,10,0.00
2013-7-17,99.0,85.0,74.3,78.1,73.3,69.3,93,71,40,30.33,30.21,7,2,8,0.00
2013-7-18,95.9,84.3,72.7,76.3,72.1,69.2,93,69,43,30.22,29.91,12,3,12,0.00
2013-7-19,93.4,83.0,72.5,74.6,68.5,61.1,92,63,38,29.92,29.79,11,4,11,0.02
2013-7-20,82.6,72.7,64.9,64.8,61.6,59.3,84,69,50,30.05,29.89,8,2,9,0.00
2013-7-21,71.1,64.5,57.2,64.8,58.1,52.3,98,80,65,30.08,29.98,10,2,10,0.06
2013-7-22,89.6,73.0,59.5,71.4,65.6,58.7,99,80,49,29.99,29.72,14,3,14,0.00
2013-7-23,79.0,68.3,57.7,68.5,54.7,48.3,83,64,37,30.08,29.77,11,3,11,0.00
2013-7-24,82.6,64.9,51.1,54.9,51.2,47.6,91,64,32,30.16,30.07,11,1,11,0.00
2013-7-25,84.2,67.6,55.0,67.8,59.7,51.6,99,78,49,30.11,29.99,14,3,18,0.35
2013-7-26,79.5,66.4,54.5,68.5,61.9,50.1,99,87,48,30.02,29.88,11,3,11,0.54
2013-7-27,65.3,54.4,48.0,50.6,47.7,44.6,91,79,57,30.02,29.90,8,2,8,0.00
2013-7-28,70.2,57.3,51.3,56.5,52.0,47.2,97,83,60,30.05,29.89,9,3,9,0.00
2013-7-29,82.8,65.0,54.1,60.3,54.9,50.0,89,72,43,30.22,30.05,7,2,7,0.00
2013-7-30,78.4,66.1,55.4,64.3,60.2,55.1,99,83,58,30.25,30.13,8,1,8,0.00
2013-7-31,82.2,68.8,61.7,68.5,63.8,59.5,99,85,54,30.15,30.00,11,2,11,0.22
2013-8-1,81.9,67.7,54.5,63.1,56.6,52.4,99,72,38,30.05,29.96,8,2,8,0.01
2013-8-2,82.9,68.6,56.7,64.6,57.0,52.8,96,69,36,30.04,29.89,6,1,6,0.00
2013-8-3,80.2,66.1,53.2,57.1,53.2,49.2,94,66,37,30.21,30.04,4,1,4,0.00
2013-8-4,82.4,64.9,50.9,56.3,52.6,49.8,97,68,33,30.31,30.17,6,1,6,0.00
2013-8-5,75.9,64.3,55.6,63.8,59.4,54.1,98,85,62,30.18,29.91,11,2,11,0.00
2013-8-6,86.7,72.5,64.4,67.6,63.7,58.4,99,77,40,29.93,29.80,10,2,10,0.00
2013-8-7,81.9,67.6,57.7,67.4,60.8,53.0,99,81,50,30.08,29.79,11,2,11,0.35
2013-8-8,85.1,65.7,48.6,60.7,53.7,48.2,99,70,33,30.12,30.05,7,1,7,0.00
2013-8-9,81.3,68.1,57.2,63.9,56.5,51.3,95,70,37,30.14,30.03,9,2,9,0.00
2013-8-10,78.3,66.0,57.2,59.1,55.9,53.0,92,71,46,30.23,30.14,4,0,4,0.00
2013-8-11,74.5,62.2,53.6,63.7,58.7,52.5,99,89,69,30.19,30.09,7,1,8,0.00
2013-8-12,82.8,67.0,54.9,68.8,59.1,53.8,99,79,40,30.10,29.98,7,1,7,0.06
2013-8-13,74.8,60.5,48.2,53.8,49.3,46.8,95,69,41,30.23,30.09,7,2,7,0.00
2013-8-14,79.7,59.8,43.0,53.2,48.2,42.5,99,70,33,30.29,30.17,6,1,6,0.00
2013-8-15,81.0,59.8,48.7,60.1,52.3,47.4,96,79,42,30.20,30.16,7,1,7,0.00
2013-8-19,77.7,73.5,70.3,64.6,63.9,63.3,79,72,64,30.06,30.04,4,1,4,0.00
2013-8-20,90.9,76.6,63.3,68.3,64.8,61.3,94,69,45,30.11,30.02,14,2,14,0.11
2013-8-21,94.5,77.7,66.7,73.6,69.2,65.4,99,77,48,30.09,29.92,15,3,15,0.19
2013-8-22,87.6,71.4,62.2,67.7,62.2,55.5,99,77,35,30.19,30.07,6,1,6,0.01
2013-8-23,86.2,69.7,55.8,62.3,58.4,55.5,99,71,38,30.28,30.19,10,2,10,0.00
2013-8-24,87.1,72.2,57.9,68.8,60.7,53.9,97,71,35,30.31,30.19,12,3,12,0.00
2013-8-25,95.7,81.6,70.9,73.3,70.4,66.9,91,71,47,30.20,30.08,17,5,17,0.00
2013-8-26,97.9,80.7,68.2,78.1,71.1,65.7,99,74,44,30.20,29.99,11,3,11,0.34
2013-8-27,99.0,82.3,74.1,78.2,75.8,73.7,99,83,48,30.04,29.85,11,2,11,0.06
2013-8-28,91.6,77.6,71.1,73.7,71.2,68.5,99,83,48,30.13,29.96,8,1,8,0.01
2013-8-29,90.3,77.7,67.5,72.7,69.4,67.2,99,78,50,30.16,30.01,11,2,11,0.00
2013-8-30,89.4,77.9,67.1,77.0,69.9,63.5,94,77,52,30.03,29.88,7,2,7,0.00
2013-8-31,83.3,69.6,58.8,66.6,63.5,58.6,99,83,54,29.98,29.86,8,1,8,0.00
2013-9-1,84.2,71.4,63.5,73.2,65.3,61.2,99,83,49,29.91,29.79,11,2,11,0.25
2013-9-2,68.9,61.7,53.4,62.1,55.5,50.7,97,81,60,30.10,29.91,7,2,7,0.00
2013-9-3,80.4,61.4,46.8,55.8,51.3,46.5,99,74,36,30.15,30.04,7,1,7,0.00
2013-9-4,85.5,68.7,56.8,67.2,59.8,51.6,98,75,51,30.22,30.06,7,2,7,0.00
2013-9-5,80.4,64.0,51.1,62.0,53.2,48.7,99,71,36,30.37,30.22,8,2,9,0.00
2013-9-6,90.9,70.1,50.7,67.1,58.2,48.1,94,69,44,30.30,30.00,13,2,13,0.00
2013-9-7,96.3,78.6,68.9,72.9,67.2,63.2,91,69,44,30.10,29.95,8,2,8,0.00
2013-9-8,77.4,66.4,56.3,63.7,57.1,53.9,92,73,48,30.19,30.04,10,3,11,0.00
2013-9-9,89.1,74.5,62.2,76.3,66.9,58.7,92,78,58,30.07,29.77,14,3,14,0.00
2013-9-10,95.9,82.5,69.1,72.4,68.0,65.0,99,63,38,30.02,29.80,8,3,8,0.11
2013-9-11,88.5,73.9,65.7,69.0,64.7,59.1,99,76,38,30.09,29.99,8,2,8,0.01
2013-9-12,76.5,63.5,52.3,59.3,53.5,44.1,95,72,41,30.24,30.03,11,2,11,0.00
2013-9-13,72.9,54.5,42.6,45.4,42.9,38.4,99,69,32,30.31,30.20,6,2,7,0.00
2013-9-14,75.6,57.9,41.2,50.1,44.8,39.4,96,66,34,30.21,30.03,11,2,11,0.00
2013-9-15,68.0,57.1,49.1,58.9,54.0,43.5,99,90,66,30.34,30.03,8,1,8,0.58
2013-9-16,68.4,51.1,38.3,46.4,42.0,38.0,99,75,38,30.49,30.34,7,2,7,0.00
2013-9-17,69.4,53.2,36.9,56.3,47.6,36.6,99,83,55,30.42,30.16,12,2,12,0.00
2013-9-18,78.3,64.9,56.5,68.8,61.2,55.1,99,89,68,30.17,29.90,12,3,12,0.15
2013-9-19,85.6,72.8,64.9,72.5,68.9,64.7,99,89,64,29.93,29.76,19,3,19,0.05
2013-9-20,70.7,64.9,55.9,68.2,61.8,54.2,99,90,64,29.88,29.76,9,3,9,0.06
2013-9-21,61.7,52.7,45.3,54.2,47.2,42.7,97,82,59,30.04,29.88,7,2,7,0.01
2013-9-22,65.3,49.0,36.0,46.6,41.2,35.7,99,78,43,30.16,30.03,8,1,8,0.00
2013-9-23,68.9,52.5,38.3,52.1,45.9,37.8,99,80,53,30.20,30.11,11,2,11,0.00
2013-9-24,76.3,55.9,42.3,55.3,49.1,42.0,99,81,44,30.14,30.03,8,1,8,0.00
2013-9-25,73.2,56.1,42.6,56.4,49.9,42.2,99,82,49,30.10,30.03,8,1,8,0.00
2013-9-26,77.4,58.1,42.3,60.1,52.0,42.0,99,83,47,30.16,30.06,11,2,13,0.00
2013-9-27,83.3,63.5,47.7,58.7,52.5,47.4,99,72,32,30.19,30.08,15,3,16,0.00
2013-9-28,79.9,63.6,53.4,66.5,55.5,49.5,99,77,50,30.11,29.84,25,5,25,0.27
2013-9-29,74.8,57.8,43.9,54.9,48.6,43.6,99,76,36,30.10,29.99,11,2,11,0.01
2013-9-30,73.6,59.9,49.6,49.1,46.5,44.7,84,64,39,30.04,29.84,20,4,20,0.00
2013-10-1,80.2,65.9,54.9,61.0,53.6,41.9,93,66,46,30.01,29.82,17,4,17,0.00
2013-10-2,80.1,62.2,42.8,50.8,40.8,32.5,86,50,18,30.17,30.00,9,2,9,0.00
2013-10-3,93.2,61.9,54.1,71.2,54.3,41.7,99,78,48,30.05,29.88,8,2,8,0.20
2013-10-4,73.8,55.6,53.8,59.0,55.3,53.5,99,99,60,30.06,29.91,7,2,100,1.09
2013-10-5,62.2,59.1,55.9,62.0,58.8,55.7,99,99,99,29.93,29.60,12,3,12,0.92
2013-10-6,64.2,54.1,46.0,61.3,47.5,40.1,99,80,44,29.64,29.57,10,2,10,0.01
2013-10-7,66.9,52.9,43.7,49.0,44.9,41.5,99,77,42,29.95,29.58,10,3,10,0.04
2013-10-8,78.1,56.1,37.9,50.6,44.9,37.5,99,71,34,30.03,29.93,16,2,16,0.00
2013-10-9,76.1,61.2,46.4,53.7,49.2,44.3,95,67,41,30.08,29.98,12,3,12,0.00
2013-10-10,74.8,58.7,41.9,55.2,48.2,41.6,99,72,40,30.07,29.95,12,2,12,0.00
2013-10-11,76.6,58.5,46.2,60.9,52.7,46.0,99,83,54,29.97,29.82,18,3,18,0.00
2013-10-12,71.2,62.0,50.5,61.1,50.7,38.8,84,68,41,30.00,29.76,12,4,13,0.00
2013-10-13,64.0,50.6,39.9,45.4,40.1,36.5,94,69,38,30.29,29.99,8,2,8,0.00
2013-10-14,65.1,47.6,33.4,47.1,38.9,6.4,99,76,10,30.33,30.09,55,2,55,0.00
2013-10-15,55.4,50.3,44.1,55.1,49.2,42.1,99,96,89,30.10,29.61,14,3,15,0.57
2013-10-16,54.0,48.8,45.7,48.8,45.4,40.1,99,88,74,29.81,29.63,6,2,6,0.00
2013-10-17,58.6,45.2,34.9,43.9,39.5,34.6,99,82,50,29.81,29.66,6,1,6,0.00
2013-10-18,49.1,43.7,37.2,46.4,41.4,36.2,96,92,86,29.81,29.66,7,2,7,0.01
2013-10-19,55.0,41.0,32.9,39.1,36.0,31.3,99,85,45,29.80,29.57,11,2,11,0.01
2013-10-20,41.9,36.9,30.6,41.5,36.3,30.3,99,98,90,29.73,29.55,8,1,8,0.09
2013-10-21,44.1,37.0,32.2,43.8,30.1,21.6,99,77,56,29.77,29.56,14,5,14,0.00
2013-10-22,52.5,36.8,28.6,33.1,27.3,24.0,92,70,41,29.86,29.73,8,3,8,0.00
2013-10-23,45.0,35.0,28.8,29.8,25.6,22.9,85,69,44,29.88,29.82,8,3,8,0.00
2013-10-24,43.3,35.9,30.4,29.6,26.7,23.6,86,70,53,30.14,29.88,8,3,8,0.00
2013-10-25,93.2,38.7,28.4,34.0,29.3,26.3,96,72,45,30.18,29.41,17,4,17,0.00
2013-10-26,51.1,46.0,39.9,38.4,33.6,28.1,75,62,47,29.67,29.32,14,4,15,0.00
2013-10-27,55.0,42.1,30.9,33.1,30.7,28.0,89,66,37,29.69,29.47,12,3,12,0.00
2013-10-28,48.6,37.3,27.1,32.5,25.9,21.8,87,64,40,30.08,29.69,9,3,9,0.00
2013-10-29,42.4,33.8,26.1,39.3,29.7,22.2,91,85,79,30.08,29.81,5,2,5,0.00
2013-10-30,51.6,45.4,39.7,51.4,44.2,38.0,99,95,91,29.81,29.41,7,2,7,0.05
2013-10-31,55.4,51.6,43.3,55.1,51.4,42.9,99,99,99,29.43,28.88,10,1,10,0.12
2013-11-1,46.8,43.0,41.5,44.2,41.9,40.4,99,96,87,29.38,28.89,11,3,11,0.01
2013-11-2,46.2,40.8,35.8,41.0,38.3,34.8,99,91,69,30.14,29.37,4,1,4,0.01
2013-11-3,50.7,37.6,26.2,39.0,33.2,26.0,99,86,55,30.28,30.14,16,3,16,0.00
2013-11-4,53.8,46.1,42.1,45.9,40.5,37.6,96,82,60,30.19,29.99,18,6,18,0.02
2013-11-5,58.6,45.4,32.9,46.1,41.1,32.4,99,87,49,30.25,29.88,7,2,7,0.51
2013-11-6,42.4,37.4,29.5,42.2,34.4,25.0,99,89,70,30.09,29.75,8,4,8,0.19
2013-11-7,43.0,31.5,24.4,30.5,24.8,22.5,96,78,46,30.18,30.09,7,3,7,0.01
2013-11-8,40.6,32.7,24.4,36.0,29.2,24.0,99,87,71,30.23,29.79,17,3,17,0.02
2013-11-9,45.5,41.6,37.8,41.9,36.1,27.7,99,81,64,29.99,29.65,15,6,15,0.13
2013-11-10,49.3,41.1,37.6,33.1,29.4,26.9,80,64,45,30.26,29.99,11,4,11,0.00
2013-11-11,38.8,30.4,23.7,34.1,20.8,9.0,97,69,43,30.51,30.03,9,3,10,0.02
2013-11-12,30.4,22.5,15.4,16.4,12.1,9.1,82,65,42,30.65,30.46,8,4,8,0.00
2013-11-13,46.9,31.2,16.9,26.9,18.2,11.6,81,60,41,30.47,29.93,19,6,19,0.00
2013-11-14,50.5,40.0,32.9,36.4,25.8,17.2,80,57,44,29.93,29.81,10,4,10,0.01
2013-11-15,58.5,42.0,29.1,39.6,32.9,26.0,91,72,44,29.89,29.82,8,2,8,0.00
2013-11-16,55.9,44.0,36.1,55.7,42.6,32.8,99,95,83,29.85,29.39,19,4,19,0.91
2013-11-17,56.8,49.0,39.2,56.6,47.7,32.1,99,95,76,29.54,29.20,15,4,15,0.17
2013-11-18,39.0,31.3,26.2,32.4,23.4,19.3,83,72,63,30.19,29.54,15,7,15,0.00
2013-11-19,40.8,28.9,17.4,28.5,21.8,15.8,95,76,47,30.34,30.18,12,3,12,0.00
2013-11-20,39.6,34.8,30.4,33.9,29.6,27.6,99,82,64,30.19,30.07,15,4,15,0.02
2013-11-21,93.2,36.2,32.9,39.3,35.6,31.4,99,97,94,30.15,29.67,7,1,7,0.01
2013-11-22,39.0,29.8,23.9,31.4,21.1,12.7,96,72,44,30.21,30.03,9,2,9,0.01
2013-11-23,23.9,15.3,7.3,14.7,4.4,-0.6,80,62,40,30.42,30.12,10,5,10,0.00
2013-11-24,24.4,14.8,4.5,8.1,2.3,-0.4,82,59,36,30.40,29.88,16,4,16,0.00
2013-11-25,33.6,28.6,23.4,26.6,18.7,6.0,83,67,43,29.88,29.67,17,7,17,0.01
2013-11-26,33.6,23.8,10.6,25.7,12.8,2.9,83,63,44,29.97,29.70,10,4,10,0.00
2013-11-27,33.8,18.8,8.8,17.5,9.3,3.8,90,68,36,30.24,29.93,8,3,8,0.00
2013-11-28,25.2,19.9,11.5,18.4,15.9,8.2,94,85,70,30.49,30.17,4,1,4,0.00
2013-11-29,32.2,18.8,6.1,19.5,13.8,4.3,94,81,58,30.62,30.35,11,2,11,0.00
2013-11-30,40.3,31.8,23.0,29.0,24.6,17.6,82,75,61,30.35,30.04,11,2,11,0.02
2013-12-1,42.8,31.6,24.8,30.7,26.2,22.7,93,81,61,30.19,30.04,4,1,4,0.00
2013-12-2,36.5,28.4,18.3,29.7,25.1,17.1,97,88,75,30.04,29.84,8,2,9,0.00
2013-12-3,32.2,31.1,27.9,31.9,30.8,27.6,99,99,92,29.87,29.79,4,0,4,0.00
2013-12-4,40.5,31.9,27.7,38.3,31.6,27.5,99,99,89,29.87,29.44,15,1,15,0.02
2013-12-5,34.3,18.0,6.1,33.3,11.2,0.7,96,74,57,30.25,29.55,22,4,22,0.00
2013-12-6,13.1,4.1,-1.5,0.8,-2.4,-5.3,83,74,56,30.54,30.25,8,5,8,0.00
2013-12-7,9.0,-0.3,-7.2,-3.8,-7.1,-10.9,83,73,54,30.68,30.53,8,3,8,0.00
2013-12-8,10.0,4.3,-3.3,8.0,0.3,-7.8,91,83,73,30.60,30.03,5,2,5,0.00
2013-12-9,15.4,7.1,-4.5,9.1,2.2,-9.5,92,80,62,30.13,29.92,15,4,15,0.00
2013-12-10,12.6,2.8,-6.0,4.1,-3.3,-10.1,86,75,59,30.21,29.86,12,4,12,0.00
2013-12-11,93.2,3.8,-7.6,71.2,-5.5,-15.3,83,65,45,30.45,29.41,8,4,9,0.00
2013-12-12,93.2,9.1,-8.0,68.2,2.3,-14.0,85,74,57,29.93,29.61,7,3,7,0.00
2013-12-13,16.3,13.7,10.6,10.9,6.7,2.4,83,73,64,29.98,29.81,6,3,6,0.00
2013-12-14,22.5,14.6,9.9,15.7,11.4,6.5,93,87,74,29.96,29.59,5,2,6,0.00
2013-12-15,16.3,4.4,-5.1,14.7,-2.8,-10.8,93,72,51,29.78,29.57,9,5,9,0.00
2013-12-16,12.0,2.4,-9.6,9.4,-2.3,-13.4,93,80,63,29.81,29.62,7,2,7,0.00
2013-12-17,33.4,21.8,11.1,26.0,17.0,9.1,96,82,63,29.71,29.49,9,5,10,0.00
2013-12-18,26.4,14.3,2.8,14.6,7.5,-0.8,86,74,52,29.75,29.38,10,2,10,0.00
2013-12-19,26.6,20.2,11.1,21.1,16.7,8.1,97,86,75,29.72,29.42,8,2,8,0.00
2013-12-20,23.2,19.4,16.9,19.4,17.0,13.6,97,90,84,29.69,29.53,8,4,8,0.00
2013-12-21,27.0,22.9,19.9,25.7,21.5,19.0,99,94,82,29.94,29.51,8,2,8,0.00
2013-12-22,29.3,21.9,19.0,21.9,19.7,17.6,97,91,72,30.08,29.79,8,3,8,0.00
2013-12-23,23.4,15.0,1.6,19.6,13.2,-0.8,97,92,83,30.37,30.08,2,0,2,0.00
2013-12-24,25.2,4.8,-11.6,14.6,-0.7,-14.9,90,78,52,30.46,30.25,11,1,11,0.00
2013-12-25,18.1,12.6,7.0,16.8,10.1,4.5,95,89,83,30.25,30.01,8,2,8,0.00
2013-12-26,19.9,15.7,10.2,13.7,11.5,6.9,89,83,73,30.18,30.03,6,2,6,0.00
2013-12-27,37.2,23.6,9.9,28.8,20.1,8.1,96,87,68,30.20,29.90,14,3,14,0.00
2013-12-28,51.3,33.9,20.8,35.4,28.8,20.6,99,83,54,30.00,29.72,8,2,8,0.14
2013-12-29,32.9,16.3,-4.7,30.1,9.6,-10.2,99,75,48,30.19,29.71,12,5,12,0.00
2013-12-30,2.1,-7.3,-16.6,-7.6,-14.7,-21.7,80,70,47,30.27,30.14,5,2,5,0.00
2013-12-31,5.2,-1.4,-10.1,-5.2,-8.5,-15.7,81,71,58,30.35,30.11,9,3,9,0.00
2014-1-1,12.6,0.6,-11.6,-4.5,-8.8,-16.8,78,64,43,30.42,30.32,6,3,6,0.00
2014-1-2,18.3,4.2,-8.1,-2.1,-6.3,-14.8,78,62,35,30.38,30.30,6,3,6,0.00